createdAt,value
2018-09-26T00:00:41.326Z,1032.32
2018-09-26T00:01:41.342Z,1032.26
2018-09-26T00:02:41.359Z,1032.26
2018-09-26T00:03:41.475Z,1032.24
2018-09-26T00:05:41.408Z,1032.17
2018-09-26T00:06:41.425Z,1032.2
2018-09-26T00:07:41.442Z,1032.2
2018-09-26T00:08:41.459Z,1032.19
2018-09-26T00:09:41.474Z,1032.16
2018-09-26T00:10:41.490Z,1032.2
2018-09-26T00:11:41.508Z,1032.2
2018-09-26T00:12:41.524Z,1032.21
2018-09-26T00:13:41.539Z,1032.22
2018-09-26T00:14:41.557Z,1032.2
2018-09-26T00:15:41.574Z,1032.17
2018-09-26T00:16:41.597Z,1032.13
2018-09-26T00:17:41.606Z,1032.09
2018-09-26T00:18:41.623Z,1032.07
2018-09-26T00:19:41.639Z,1032.03
2018-09-26T00:21:41.672Z,1032
2018-09-26T00:22:41.693Z,1032.04
2018-09-26T00:23:41.705Z,1032.01
2018-09-26T00:24:41.721Z,1032.01
2018-09-26T00:25:41.738Z,1032.01
2018-09-26T00:26:41.752Z,1032.03
2018-09-26T00:27:41.771Z,1032.05
2018-09-26T00:28:41.786Z,1032.06
2018-09-26T00:29:41.804Z,1032.06
2018-09-26T00:30:41.820Z,1032.08
2018-09-26T00:31:41.850Z,1032.07
2018-09-26T00:32:41.852Z,1032.05
2018-09-26T00:33:41.871Z,1032.1
2018-09-26T00:34:41.892Z,1032.09
2018-09-26T00:36:41.919Z,1032.12
2018-09-26T00:37:41.962Z,1032.09
2018-09-26T00:38:42.052Z,1032.04
2018-09-26T00:39:41.968Z,1032.06
2018-09-26T00:40:41.985Z,1032.06
2018-09-26T00:41:42.000Z,1032.06
2018-09-26T00:42:42.020Z,1032.05
2018-09-26T00:43:42.033Z,1032.03
2018-09-26T00:44:42.049Z,1031.99
2018-09-26T00:45:42.065Z,1032
2018-09-26T00:46:42.088Z,1032.03
2018-09-26T00:47:42.099Z,1032.04
2018-09-26T00:48:42.114Z,1032.01
2018-09-26T00:49:42.130Z,1032.01
2018-09-26T00:50:42.148Z,1031.95
2018-09-26T00:51:42.164Z,1031.96
2018-09-26T00:52:42.180Z,1031.93
2018-09-26T00:53:42.197Z,1031.88
2018-09-26T00:54:42.213Z,1031.84
2018-09-26T00:55:42.227Z,1031.82
2018-09-26T00:56:42.244Z,1031.87
2018-09-26T00:57:42.261Z,1031.8
2018-09-26T00:58:42.276Z,1031.81
2018-09-26T00:59:42.294Z,1031.83
2018-09-26T01:00:42.309Z,1031.76
2018-09-26T01:01:42.326Z,1031.76
2018-09-26T01:02:42.343Z,1031.75
2018-09-26T01:03:42.358Z,1031.75
2018-09-26T01:04:42.375Z,1031.76
2018-09-26T01:05:42.390Z,1031.79
2018-09-26T01:06:42.407Z,1031.75
2018-09-26T01:08:42.442Z,1031.73
2018-09-26T01:09:42.458Z,1031.66
2018-09-26T01:10:42.471Z,1031.59
2018-09-26T01:11:42.488Z,1031.56
2018-09-26T01:12:42.503Z,1031.5
2018-09-26T01:13:42.520Z,1031.51
2018-09-26T01:14:42.536Z,1031.46
2018-09-26T01:15:42.553Z,1031.47
2018-09-26T01:16:42.569Z,1031.47
2018-09-26T01:17:42.585Z,1031.5
2018-09-26T01:18:42.600Z,1031.48
2018-09-26T01:19:42.618Z,1031.5
2018-09-26T01:20:42.634Z,1031.44
2018-09-26T01:21:42.649Z,1031.38
2018-09-26T01:22:42.666Z,1031.35
2018-09-26T01:24:42.699Z,1031.37
2018-09-26T01:25:42.714Z,1031.4
2018-09-26T01:26:42.730Z,1031.34
2018-09-26T01:27:42.745Z,1031.34
2018-09-26T01:28:42.762Z,1031.31
2018-09-26T01:29:42.779Z,1031.33
2018-09-26T01:30:42.795Z,1031.25
2018-09-26T01:31:42.811Z,1031.23
2018-09-26T01:32:42.827Z,1031.23
2018-09-26T01:33:42.843Z,1031.22
2018-09-26T01:34:42.859Z,1031.17
2018-09-26T01:35:42.876Z,1031.18
2018-09-26T01:36:42.890Z,1031.14
2018-09-26T01:37:42.908Z,1031.17
2018-09-26T01:38:42.924Z,1031.13
2018-09-26T01:40:42.958Z,1031.12
2018-09-26T01:41:42.976Z,1031.12
2018-09-26T01:42:42.989Z,1031.13
2018-09-26T01:43:43.004Z,1031.1
2018-09-26T01:44:43.020Z,1031.11
2018-09-26T01:45:43.036Z,1031.18
2018-09-26T01:46:43.052Z,1031.19
2018-09-26T01:47:43.070Z,1031.16
2018-09-26T01:48:43.083Z,1031.17
2018-09-26T01:49:43.100Z,1031.19
2018-09-26T01:50:43.115Z,1031.2
2018-09-26T01:51:43.132Z,1031.23
2018-09-26T01:52:43.148Z,1031.24
2018-09-26T01:53:43.165Z,1031.27
2018-09-26T01:54:43.179Z,1031.25
2018-09-26T01:56:43.216Z,1031.26
2018-09-26T01:57:43.229Z,1031.27
2018-09-26T01:58:43.244Z,1031.22
2018-09-26T01:59:43.260Z,1031.24
2018-09-26T02:00:43.281Z,1031.17
2018-09-26T02:01:43.290Z,1031.15
2018-09-26T02:02:43.308Z,1031.17
2018-09-26T02:03:43.324Z,1031.16
2018-09-26T02:04:43.341Z,1031.17
2018-09-26T02:05:43.355Z,1031.16
2018-09-26T02:06:43.371Z,1031.24
2018-09-26T02:07:43.388Z,1031.21
2018-09-26T02:08:43.404Z,1031.26
2018-09-26T02:09:43.420Z,1031.2
2018-09-26T02:11:43.453Z,1031.17
2018-09-26T02:12:43.468Z,1031.09
2018-09-26T02:13:43.485Z,1031.11
2018-09-26T02:14:43.500Z,1031.12
2018-09-26T02:15:43.517Z,1031.1
2018-09-26T02:16:43.532Z,1031.02
2018-09-26T02:17:43.548Z,1030.98
2018-09-26T02:18:43.564Z,1030.93
2018-09-26T02:19:43.579Z,1030.95
2018-09-26T02:20:43.596Z,1030.98
2018-09-26T02:21:43.612Z,1030.95
2018-09-26T02:22:43.631Z,1031.01
2018-09-26T02:23:43.693Z,1031.02
2018-09-26T02:24:43.659Z,1031
2018-09-26T02:25:43.675Z,1031.01
2018-09-26T02:26:43.691Z,1030.99
2018-09-26T02:27:43.709Z,1030.99
2018-09-26T02:28:43.723Z,1030.99
2018-09-26T02:29:43.738Z,1031.01
2018-09-26T02:30:43.753Z,1031
2018-09-26T02:31:43.771Z,1031.01
2018-09-26T02:32:43.786Z,1030.96
2018-09-26T02:33:43.805Z,1030.96
2018-09-26T02:34:43.818Z,1030.97
2018-09-26T02:35:43.837Z,1031.01
2018-09-26T02:36:43.850Z,1031.03
2018-09-26T02:37:43.867Z,1031.1
2018-09-26T02:38:43.883Z,1031.13
2018-09-26T02:39:43.898Z,1031.2
2018-09-26T02:40:43.914Z,1031.22
2018-09-26T02:41:43.929Z,1031.2
2018-09-26T02:43:43.963Z,1031.15
2018-09-26T02:44:43.979Z,1031.18
2018-09-26T02:45:43.994Z,1031.23
2018-09-26T02:46:44.010Z,1031.22
2018-09-26T02:47:44.027Z,1031.25
2018-09-26T02:48:44.042Z,1031.29
2018-09-26T02:49:44.069Z,1031.31
2018-09-26T02:50:44.074Z,1031.36
2018-09-26T02:51:44.094Z,1031.35
2018-09-26T02:52:44.105Z,1031.31
2018-09-26T02:53:44.120Z,1031.26
2018-09-26T02:54:44.135Z,1031.21
2018-09-26T02:55:44.232Z,1031.24
2018-09-26T02:56:44.169Z,1031.25
2018-09-26T02:57:44.189Z,1031.14
2018-09-26T02:59:44.217Z,1031.06
2018-09-26T03:00:44.232Z,1031.06
2018-09-26T03:01:44.248Z,1031.09
2018-09-26T03:02:44.265Z,1031.08
2018-09-26T03:03:44.281Z,1031.11
2018-09-26T03:04:44.296Z,1031.04
2018-09-26T03:05:44.312Z,1030.99
2018-09-26T03:06:44.329Z,1030.94
2018-09-26T03:07:44.349Z,1030.92
2018-09-26T03:08:44.360Z,1030.88
2018-09-26T03:09:44.376Z,1030.9
2018-09-26T03:10:44.434Z,1030.93
2018-09-26T03:11:44.413Z,1030.92
2018-09-26T03:12:44.423Z,1030.95
2018-09-26T03:13:44.443Z,1030.96
2018-09-26T03:15:44.470Z,1030.97
2018-09-26T03:16:44.487Z,1030.9
2018-09-26T03:17:44.619Z,1030.93
2018-09-26T03:18:44.520Z,1030.87
2018-09-26T03:19:44.534Z,1030.86
2018-09-26T03:20:44.549Z,1030.85
2018-09-26T03:21:44.567Z,1030.84
2018-09-26T03:22:44.582Z,1030.84
2018-09-26T03:23:44.598Z,1030.89
2018-09-26T03:24:44.617Z,1030.88
2018-09-26T03:25:44.632Z,1030.87
2018-09-26T03:26:44.645Z,1030.91
2018-09-26T03:27:44.661Z,1030.91
2018-09-26T03:28:44.676Z,1030.93
2018-09-26T03:29:44.693Z,1030.96
2018-09-26T03:31:44.728Z,1030.96
2018-09-26T03:32:44.748Z,1030.93
2018-09-26T03:33:44.800Z,1030.92
2018-09-26T03:34:44.773Z,1030.92
2018-09-26T03:35:44.788Z,1030.87
2018-09-26T03:36:44.804Z,1030.88
2018-09-26T03:37:44.818Z,1030.87
2018-09-26T03:38:44.835Z,1030.93
2018-09-26T03:39:44.852Z,1030.92
2018-09-26T03:40:44.873Z,1030.95
2018-09-26T03:41:44.884Z,1030.9
2018-09-26T03:42:44.898Z,1030.95
2018-09-26T03:43:44.915Z,1030.95
2018-09-26T03:44:44.932Z,1030.97
2018-09-26T03:46:44.965Z,1031.01
2018-09-26T03:47:44.979Z,1030.93
2018-09-26T03:48:44.996Z,1030.9
2018-09-26T03:49:45.012Z,1030.85
2018-09-26T03:50:45.031Z,1030.88
2018-09-26T03:51:45.044Z,1030.86
2018-09-26T03:52:45.059Z,1030.83
2018-09-26T03:53:45.076Z,1030.81
2018-09-26T03:54:45.091Z,1030.78
2018-09-26T03:55:45.107Z,1030.75
2018-09-26T03:56:45.124Z,1030.68
2018-09-26T03:57:45.140Z,1030.65
2018-09-26T03:58:45.156Z,1030.64
2018-09-26T03:59:45.171Z,1030.65
2018-09-26T04:00:45.187Z,1030.65
2018-09-26T04:01:45.205Z,1030.66
2018-09-26T04:02:45.221Z,1030.6
2018-09-26T04:03:45.236Z,1030.6
2018-09-26T04:04:45.298Z,1030.6
2018-09-26T04:05:45.268Z,1030.6
2018-09-26T04:06:45.284Z,1030.56
2018-09-26T04:07:45.300Z,1030.61
2018-09-26T04:08:45.316Z,1030.59
2018-09-26T04:09:45.331Z,1030.57
2018-09-26T04:10:45.349Z,1030.53
2018-09-26T04:11:45.364Z,1030.54
2018-09-26T04:12:45.513Z,1030.5
2018-09-26T04:13:45.395Z,1030.51
2018-09-26T04:14:45.412Z,1030.53
2018-09-26T04:15:45.449Z,1030.5
2018-09-26T04:16:45.443Z,1030.47
2018-09-26T04:18:45.476Z,1030.44
2018-09-26T04:19:45.496Z,1030.42
2018-09-26T04:20:45.508Z,1030.42
2018-09-26T04:21:45.524Z,1030.43
2018-09-26T04:22:45.540Z,1030.36
2018-09-26T04:23:45.560Z,1030.37
2018-09-26T04:24:45.573Z,1030.33
2018-09-26T04:25:45.590Z,1030.33
2018-09-26T04:26:45.644Z,1030.35
2018-09-26T04:27:45.800Z,1030.31
2018-09-26T04:28:45.643Z,1030.34
2018-09-26T04:29:45.689Z,1030.38
2018-09-26T04:30:45.711Z,1030.33
2018-09-26T04:31:45.885Z,1030.33
2018-09-26T04:32:45.851Z,1030.31
2018-09-26T04:34:45.734Z,1030.23
2018-09-26T04:35:45.749Z,1030.24
2018-09-26T04:36:45.765Z,1030.24
2018-09-26T04:37:45.784Z,1030.26
2018-09-26T04:38:45.904Z,1030.23
2018-09-26T04:39:45.819Z,1030.27
2018-09-26T04:40:45.831Z,1030.25
2018-09-26T04:41:45.848Z,1030.3
2018-09-26T04:42:45.862Z,1030.23
2018-09-26T04:43:45.879Z,1030.19
2018-09-26T04:44:45.899Z,1030.23
2018-09-26T04:45:45.912Z,1030.19
2018-09-26T04:46:45.938Z,1030.2
2018-09-26T04:47:45.946Z,1030.18
2018-09-26T04:48:45.960Z,1030.13
2018-09-26T04:50:46.006Z,1030.12
2018-09-26T04:51:46.012Z,1030.11
2018-09-26T04:52:46.025Z,1030.07
2018-09-26T04:53:46.040Z,1030.06
2018-09-26T04:54:46.056Z,1030.07
2018-09-26T04:55:46.076Z,1030.09
2018-09-26T04:56:46.090Z,1030.09
2018-09-26T04:57:46.116Z,1030.04
2018-09-26T04:58:46.123Z,1030.06
2018-09-26T04:59:46.138Z,1030.08
2018-09-26T05:00:46.154Z,1030.03
2018-09-26T05:01:46.170Z,1030.06
2018-09-26T05:02:46.187Z,1030.07
2018-09-26T05:03:46.203Z,1030.06
2018-09-26T05:04:46.219Z,1030.04
2018-09-26T05:06:46.251Z,1029.98
2018-09-26T05:07:46.268Z,1029.95
2018-09-26T05:08:46.284Z,1029.96
2018-09-26T05:09:46.300Z,1029.99
2018-09-26T05:10:46.316Z,1029.94
2018-09-26T05:11:46.332Z,1029.87
2018-09-26T05:12:46.348Z,1029.83
2018-09-26T05:13:46.364Z,1029.85
2018-09-26T05:14:46.385Z,1029.85
2018-09-26T05:15:46.396Z,1029.81
2018-09-26T05:16:46.413Z,1029.76
2018-09-26T05:17:46.430Z,1029.78
2018-09-26T05:18:46.447Z,1029.78
2018-09-26T05:19:46.463Z,1029.79
2018-09-26T05:21:46.495Z,1029.71
2018-09-26T05:22:46.572Z,1029.69
2018-09-26T05:23:46.528Z,1029.63
2018-09-26T05:24:46.548Z,1029.64
2018-09-26T05:25:46.562Z,1029.61
2018-09-26T05:26:46.578Z,1029.61
2018-09-26T05:27:46.593Z,1029.62
2018-09-26T05:28:46.610Z,1029.61
2018-09-26T05:29:46.629Z,1029.61
2018-09-26T05:30:46.643Z,1029.65
2018-09-26T05:31:46.659Z,1029.62
2018-09-26T05:32:46.676Z,1029.61
2018-09-26T05:33:46.692Z,1029.6
2018-09-26T05:34:46.708Z,1029.57
2018-09-26T05:35:46.725Z,1029.61
2018-09-26T05:36:46.741Z,1029.61
2018-09-26T05:37:46.758Z,1029.58
2018-09-26T05:38:46.777Z,1029.6
2018-09-26T05:39:46.791Z,1029.58
2018-09-26T05:40:46.807Z,1029.58
2018-09-26T05:41:46.899Z,1029.56
2018-09-26T05:42:46.840Z,1029.58
2018-09-26T05:43:46.857Z,1029.59
2018-09-26T05:44:46.873Z,1029.61
2018-09-26T05:45:46.890Z,1029.59
2018-09-26T05:46:46.908Z,1029.65
2018-09-26T05:47:46.927Z,1029.62
2018-09-26T05:48:46.941Z,1029.63
2018-09-26T05:49:46.958Z,1029.66
2018-09-26T05:50:46.975Z,1029.63
2018-09-26T05:51:46.991Z,1029.64
2018-09-26T05:53:47.025Z,1029.61
2018-09-26T05:54:47.044Z,1029.59
2018-09-26T05:55:47.059Z,1029.52
2018-09-26T05:56:47.083Z,1029.54
2018-09-26T05:57:47.095Z,1029.66
2018-09-26T05:58:47.116Z,1029.57
2018-09-26T05:59:47.129Z,1029.6
2018-09-26T06:00:47.151Z,1029.54
2018-09-26T06:01:47.167Z,1029.6
2018-09-26T06:02:47.185Z,1029.63
2018-09-26T06:03:47.203Z,1029.59
2018-09-26T06:04:47.222Z,1029.59
2018-09-26T06:05:47.239Z,1029.58
2018-09-26T06:06:47.258Z,1029.59
2018-09-26T06:07:47.277Z,1029.63
2018-09-26T06:09:47.314Z,1029.62
2018-09-26T06:10:47.333Z,1029.64
2018-09-26T06:11:47.351Z,1029.63
2018-09-26T06:12:47.397Z,1029.68
2018-09-26T06:13:47.388Z,1029.77
2018-09-26T06:14:47.407Z,1029.74
2018-09-26T06:15:47.426Z,1029.73
2018-09-26T06:16:47.444Z,1029.83
2018-09-26T06:17:47.462Z,1029.78
2018-09-26T06:18:47.483Z,1029.81
2018-09-26T06:19:47.501Z,1029.76
2018-09-26T06:20:47.521Z,1029.74
2018-09-26T06:21:47.539Z,1029.74
2018-09-26T06:22:47.559Z,1029.77
2018-09-26T06:23:47.577Z,1029.72
2018-09-26T06:25:47.618Z,1029.74
2018-09-26T06:26:47.639Z,1029.78
2018-09-26T06:27:47.654Z,1029.79
2018-09-26T06:28:47.675Z,1029.85
2018-09-26T06:29:47.691Z,1029.79
2018-09-26T06:30:47.710Z,1029.83
2018-09-26T06:31:47.733Z,1029.83
2018-09-26T06:32:47.748Z,1029.85
2018-09-26T06:33:47.767Z,1029.84
2018-09-26T06:34:47.804Z,1029.89
2018-09-26T06:35:47.808Z,1029.85
2018-09-26T06:36:47.825Z,1029.88
2018-09-26T06:37:47.843Z,1029.85
2018-09-26T06:38:47.864Z,1029.87
2018-09-26T06:39:47.883Z,1029.88
2018-09-26T06:41:47.922Z,1029.92
2018-09-26T06:42:47.942Z,1029.82
2018-09-26T06:43:47.964Z,1029.69
2018-09-26T06:44:47.981Z,1029.72
2018-09-26T06:45:48.002Z,1029.74
2018-09-26T06:46:48.022Z,1029.72
2018-09-26T06:47:48.043Z,1029.7
2018-09-26T06:48:48.062Z,1029.71
2018-09-26T06:49:48.082Z,1029.75
2018-09-26T06:50:48.102Z,1029.73
2018-09-26T06:51:48.122Z,1029.76
2018-09-26T06:52:48.142Z,1029.75
2018-09-26T06:53:48.162Z,1029.73
2018-09-26T06:54:48.183Z,1029.75
2018-09-26T06:56:48.223Z,1029.72
2018-09-26T06:57:48.242Z,1029.71
2018-09-26T06:58:48.262Z,1029.75
2018-09-26T06:59:48.282Z,1029.82
2018-09-26T07:00:48.301Z,1029.83
2018-09-26T07:01:48.321Z,1029.78
2018-09-26T07:02:48.341Z,1029.75
2018-09-26T07:03:48.362Z,1029.77
2018-09-26T07:04:48.379Z,1029.76
2018-09-26T07:05:48.398Z,1029.69
2018-09-26T07:06:48.419Z,1029.71
2018-09-26T07:07:48.439Z,1029.7
2018-09-26T07:08:48.458Z,1029.68
2018-09-26T07:09:48.479Z,1029.68
2018-09-26T07:10:48.498Z,1029.64
2018-09-26T07:11:48.518Z,1029.62
2018-09-26T07:12:48.537Z,1029.6
2018-09-26T07:13:48.559Z,1029.57
2018-09-26T07:14:48.578Z,1029.61
2018-09-26T07:15:48.597Z,1029.61
2018-09-26T07:16:48.621Z,1029.58
2018-09-26T07:17:48.641Z,1029.64
2018-09-26T07:18:48.653Z,1029.59
2018-09-26T07:19:48.673Z,1029.59
2018-09-26T07:20:48.692Z,1029.57
2018-09-26T07:21:48.711Z,1029.55
2018-09-26T07:22:48.737Z,1029.71
2018-09-26T07:23:48.753Z,1029.56
2018-09-26T07:24:48.772Z,1029.61
2018-09-26T07:25:48.791Z,1029.6
2018-09-26T07:26:48.820Z,1029.78
2018-09-26T07:28:48.849Z,1029.91
2018-09-26T07:29:48.870Z,1029.89
2018-09-26T07:30:48.890Z,1029.78
2018-09-26T07:31:48.915Z,1029.69
2018-09-26T07:32:48.933Z,1029.68
2018-09-26T07:33:48.955Z,1029.74
2018-09-26T07:34:48.979Z,1029.78
2018-09-26T07:35:48.998Z,1029.82
2018-09-26T07:36:49.019Z,1029.72
2018-09-26T07:37:49.042Z,1029.66
2018-09-26T07:38:49.067Z,1029.58
2018-09-26T07:39:49.087Z,1029.62
2018-09-26T07:40:49.109Z,1029.68
2018-09-26T07:41:49.130Z,1029.65
2018-09-26T07:42:49.153Z,1029.62
2018-09-26T07:44:49.199Z,1029.63
2018-09-26T07:45:49.264Z,1029.61
2018-09-26T07:46:49.243Z,1029.65
2018-09-26T07:47:49.266Z,1029.58
2018-09-26T07:48:49.291Z,1029.62
2018-09-26T07:49:49.312Z,1029.67
2018-09-26T07:50:49.333Z,1029.66
2018-09-26T07:51:49.357Z,1029.66
2018-09-26T07:52:49.385Z,1029.68
2018-09-26T07:53:49.403Z,1029.72
2018-09-26T07:54:49.424Z,1029.67
2018-09-26T07:55:49.449Z,1029.69
2018-09-26T07:56:49.471Z,1029.71
2018-09-26T07:57:49.494Z,1029.72
2018-09-26T07:58:49.517Z,1029.68
2018-09-26T08:00:49.561Z,1029.67
2018-09-26T08:01:49.586Z,1029.69
2018-09-26T08:02:49.609Z,1029.65
2018-09-26T08:03:49.632Z,1029.72
2018-09-26T08:04:49.657Z,1029.7
2018-09-26T08:05:49.695Z,1029.67
2018-09-26T08:06:49.703Z,1029.72
2018-09-26T08:07:49.725Z,1029.67
2018-09-26T08:08:49.748Z,1029.65
2018-09-26T08:09:49.776Z,1029.63
2018-09-26T08:10:49.799Z,1029.6
2018-09-26T08:11:49.901Z,1029.58
2018-09-26T08:12:49.844Z,1029.59
2018-09-26T08:13:49.867Z,1029.6
2018-09-26T08:14:49.890Z,1029.6
2018-09-26T08:16:49.937Z,1029.57
2018-09-26T08:17:49.962Z,1029.59
2018-09-26T08:18:49.984Z,1029.52
2018-09-26T08:19:50.007Z,1029.46
2018-09-26T08:20:50.032Z,1029.43
2018-09-26T08:21:50.057Z,1029.42
2018-09-26T08:22:50.078Z,1029.38
2018-09-26T08:23:50.251Z,1029.29
2018-09-26T08:24:50.126Z,1029.33
2018-09-26T08:25:50.149Z,1029.29
2018-09-26T08:26:50.172Z,1029.28
2018-09-26T08:27:50.196Z,1029.28
2018-09-26T08:28:50.220Z,1029.29
2018-09-26T08:29:50.299Z,1029.29
2018-09-26T08:31:50.295Z,1029.31
2018-09-26T08:32:50.313Z,1029.3
2018-09-26T08:33:50.335Z,1029.31
2018-09-26T08:34:50.360Z,1029.22
2018-09-26T08:35:50.384Z,1029.23
2018-09-26T08:36:50.406Z,1029.24
2018-09-26T08:37:50.431Z,1029.24
2018-09-26T08:38:50.454Z,1029.2
2018-09-26T08:39:50.476Z,1029.19
2018-09-26T08:40:50.500Z,1029.2
2018-09-26T08:41:50.574Z,1029.18
2018-09-26T08:42:50.552Z,1029.15
2018-09-26T08:43:50.622Z,1029.11
2018-09-26T08:44:50.595Z,1029.02
2018-09-26T08:45:50.619Z,1029.08
2018-09-26T08:46:50.642Z,1029.08
2018-09-26T08:47:50.664Z,1029.1
2018-09-26T08:48:50.688Z,1029.07
2018-09-26T08:49:50.712Z,1029.08
2018-09-26T08:50:50.737Z,1029.04
2018-09-26T08:51:50.758Z,1029.06
2018-09-26T08:52:50.783Z,1029.02
2018-09-26T08:53:50.920Z,1028.98
2018-09-26T08:54:50.828Z,1028.89
2018-09-26T08:55:50.852Z,1028.87
2018-09-26T08:56:50.875Z,1028.89
2018-09-26T08:57:50.899Z,1028.86
2018-09-26T08:58:50.921Z,1028.77
2018-09-26T08:59:51.010Z,1028.78
2018-09-26T09:00:50.969Z,1028.7
2018-09-26T09:01:50.996Z,1028.67
2018-09-26T09:03:51.038Z,1028.65
2018-09-26T09:04:51.063Z,1028.6
2018-09-26T09:05:51.088Z,1028.57
2018-09-26T09:06:51.108Z,1028.56
2018-09-26T09:07:51.131Z,1028.62
2018-09-26T09:08:51.216Z,1028.63
2018-09-26T09:09:51.180Z,1028.62
2018-09-26T09:10:51.199Z,1028.64
2018-09-26T09:11:51.223Z,1028.67
2018-09-26T09:12:51.245Z,1028.7
2018-09-26T09:13:51.270Z,1028.62
2018-09-26T09:14:51.503Z,1028.65
2018-09-26T09:15:51.315Z,1028.7
2018-09-26T09:16:51.336Z,1028.69
2018-09-26T09:17:51.423Z,1028.69
2018-09-26T09:19:51.405Z,1028.73
2018-09-26T09:20:51.435Z,1028.76
2018-09-26T09:21:51.451Z,1028.68
2018-09-26T09:22:51.472Z,1028.76
2018-09-26T09:23:51.507Z,1028.73
2018-09-26T09:24:51.518Z,1028.73
2018-09-26T09:25:51.541Z,1028.71
2018-09-26T09:26:51.565Z,1028.68
2018-09-26T09:27:51.586Z,1028.66
2018-09-26T09:28:51.608Z,1028.62
2018-09-26T09:29:51.632Z,1028.58
2018-09-26T09:30:51.655Z,1028.57
2018-09-26T09:31:51.677Z,1028.53
2018-09-26T09:32:51.701Z,1028.53
2018-09-26T09:33:51.731Z,1028.58
2018-09-26T09:35:51.770Z,1028.58
2018-09-26T09:36:51.796Z,1028.66
2018-09-26T09:37:51.817Z,1028.66
2018-09-26T09:38:51.841Z,1028.66
2018-09-26T09:39:51.865Z,1028.66
2018-09-26T09:40:51.887Z,1028.61
2018-09-26T09:41:51.910Z,1028.56
2018-09-26T09:42:51.932Z,1028.56
2018-09-26T09:43:51.994Z,1028.45
2018-09-26T09:44:51.980Z,1028.46
2018-09-26T09:45:52.002Z,1028.43
2018-09-26T09:46:52.027Z,1028.42
2018-09-26T09:47:52.051Z,1028.44
2018-09-26T09:48:52.076Z,1028.43
2018-09-26T09:49:52.098Z,1028.51
2018-09-26T09:51:52.151Z,1028.5
2018-09-26T09:52:52.170Z,1028.52
2018-09-26T09:53:52.193Z,1028.51
2018-09-26T09:54:52.218Z,1028.58
2018-09-26T09:55:52.242Z,1028.46
2018-09-26T09:56:52.265Z,1028.49
2018-09-26T09:57:52.288Z,1028.43
2018-09-26T09:58:52.312Z,1028.45
2018-09-26T09:59:52.365Z,1028.41
2018-09-26T10:00:52.359Z,1028.43
2018-09-26T10:01:52.384Z,1028.43
2018-09-26T10:02:52.535Z,1028.38
2018-09-26T10:03:52.499Z,1028.37
2018-09-26T10:04:52.456Z,1028.34
2018-09-26T10:06:52.513Z,1028.29
2018-09-26T10:07:52.528Z,1028.3
2018-09-26T10:08:52.607Z,1028.23
2018-09-26T10:09:52.577Z,1028.26
2018-09-26T10:10:52.601Z,1028.22
2018-09-26T10:11:52.624Z,1028.2
2018-09-26T10:12:52.649Z,1028.22
2018-09-26T10:13:52.673Z,1028.2
2018-09-26T10:14:52.703Z,1028.22
2018-09-26T10:15:52.720Z,1028.27
2018-09-26T10:16:52.745Z,1028.18
2018-09-26T10:17:52.774Z,1028.24
2018-09-26T10:18:52.792Z,1028.23
2018-09-26T10:19:52.816Z,1028.17
2018-09-26T10:20:52.840Z,1028.11
2018-09-26T10:21:52.865Z,1028.17
2018-09-26T10:22:52.887Z,1028.11
2018-09-26T10:23:52.912Z,1028.19
2018-09-26T10:24:52.936Z,1028.14
2018-09-26T10:25:52.960Z,1028.1
2018-09-26T10:26:52.983Z,1028.02
2018-09-26T10:27:53.006Z,1027.98
2018-09-26T10:28:53.031Z,1028.06
2018-09-26T10:29:53.055Z,1028.03
2018-09-26T10:30:53.080Z,1028.02
2018-09-26T10:31:53.102Z,1028
2018-09-26T10:32:53.125Z,1027.97
2018-09-26T10:33:53.149Z,1028
2018-09-26T10:34:53.242Z,1027.97
2018-09-26T10:35:53.196Z,1027.93
2018-09-26T10:36:53.221Z,1027.86
2018-09-26T10:38:53.270Z,1027.83
2018-09-26T10:39:53.293Z,1027.86
2018-09-26T10:40:53.347Z,1027.84
2018-09-26T10:41:53.343Z,1027.75
2018-09-26T10:42:53.370Z,1027.95
2018-09-26T10:43:53.385Z,1027.9
2018-09-26T10:44:53.409Z,1027.93
2018-09-26T10:45:53.434Z,1027.88
2018-09-26T10:46:53.456Z,1027.9
2018-09-26T10:47:53.478Z,1027.79
2018-09-26T10:48:53.504Z,1027.78
2018-09-26T10:49:53.529Z,1027.82
2018-09-26T10:50:53.553Z,1027.77
2018-09-26T10:51:53.574Z,1027.9
2018-09-26T10:52:53.598Z,1027.81
2018-09-26T10:54:53.646Z,1027.69
2018-09-26T10:55:53.669Z,1027.68
2018-09-26T10:56:53.693Z,1027.62
2018-09-26T10:57:53.717Z,1027.68
2018-09-26T10:58:53.740Z,1027.46
2018-09-26T10:59:53.763Z,1027.47
2018-09-26T11:00:53.786Z,1027.53
2018-09-26T11:01:53.825Z,1027.55
2018-09-26T11:02:53.835Z,1027.5
2018-09-26T11:03:53.856Z,1027.49
2018-09-26T11:04:53.881Z,1027.42
2018-09-26T11:05:53.904Z,1027.43
2018-09-26T11:06:53.927Z,1027.36
2018-09-26T11:07:53.950Z,1027.37
2018-09-26T11:08:53.973Z,1027.37
2018-09-26T11:10:54.020Z,1027.23
2018-09-26T11:11:54.043Z,1027.31
2018-09-26T11:12:54.066Z,1027.22
2018-09-26T11:13:54.090Z,1027.23
2018-09-26T11:14:54.112Z,1027.17
2018-09-26T11:15:54.135Z,1027.22
2018-09-26T11:16:54.160Z,1027.21
2018-09-26T11:17:54.183Z,1027.14
2018-09-26T11:18:54.264Z,1027.1
2018-09-26T11:19:54.228Z,1027.04
2018-09-26T11:20:54.251Z,1027.04
2018-09-26T11:21:54.275Z,1026.99
2018-09-26T11:22:54.298Z,1026.91
2018-09-26T11:23:54.321Z,1026.94
2018-09-26T11:24:54.344Z,1026.91
2018-09-26T11:26:54.392Z,1026.88
2018-09-26T11:27:54.414Z,1026.82
2018-09-26T11:28:54.437Z,1026.77
2018-09-26T11:29:54.460Z,1026.79
2018-09-26T11:30:54.483Z,1026.73
2018-09-26T11:31:54.510Z,1026.75
2018-09-26T11:32:54.529Z,1026.75
2018-09-26T11:33:54.553Z,1026.71
2018-09-26T11:34:54.576Z,1026.69
2018-09-26T11:35:54.597Z,1026.67
2018-09-26T11:36:54.621Z,1026.63
2018-09-26T11:37:54.645Z,1026.6
2018-09-26T11:38:54.666Z,1026.67
2018-09-26T11:39:54.691Z,1026.57
2018-09-26T11:41:54.737Z,1026.7
2018-09-26T11:42:54.761Z,1026.64
2018-09-26T11:43:54.783Z,1026.74
2018-09-26T11:44:54.808Z,1026.59
2018-09-26T11:45:54.830Z,1026.65
2018-09-26T11:46:54.855Z,1026.61
2018-09-26T11:47:54.875Z,1026.56
2018-09-26T11:48:54.898Z,1026.5
2018-09-26T11:49:54.921Z,1026.45
2018-09-26T11:50:54.944Z,1026.42
2018-09-26T11:51:54.967Z,1026.51
2018-09-26T11:52:54.990Z,1026.52
2018-09-26T11:53:55.014Z,1026.39
2018-09-26T11:54:55.036Z,1026.34
2018-09-26T11:55:55.088Z,1026.39
2018-09-26T11:56:55.083Z,1026.43
2018-09-26T11:57:55.105Z,1026.47
2018-09-26T11:58:55.128Z,1026.41
2018-09-26T11:59:55.151Z,1026.4
2018-09-26T12:00:55.178Z,1026.46
2018-09-26T12:01:55.197Z,1026.45
2018-09-26T12:02:55.220Z,1026.37
2018-09-26T12:03:55.243Z,1026.39
2018-09-26T12:04:55.266Z,1026.38
2018-09-26T12:05:55.289Z,1026.34
2018-09-26T12:06:55.368Z,1026.29
2018-09-26T12:07:55.336Z,1026.27
2018-09-26T12:08:55.358Z,1026.22
2018-09-26T12:09:55.382Z,1026.19
2018-09-26T12:10:55.405Z,1026.05
2018-09-26T12:11:55.430Z,1026.06
2018-09-26T12:13:55.490Z,1026.03
2018-09-26T12:14:55.498Z,1026
2018-09-26T12:15:55.520Z,1025.98
2018-09-26T12:16:55.543Z,1025.97
2018-09-26T12:17:55.567Z,1025.87
2018-09-26T12:18:55.590Z,1025.85
2018-09-26T12:19:55.612Z,1025.75
2018-09-26T12:20:55.636Z,1025.89
2018-09-26T12:21:55.671Z,1025.8
2018-09-26T12:22:55.682Z,1025.96
2018-09-26T12:23:55.705Z,1025.89
2018-09-26T12:24:55.729Z,1025.92
2018-09-26T12:25:55.752Z,1025.94
2018-09-26T12:26:55.834Z,1025.99
2018-09-26T12:27:55.816Z,1025.94
2018-09-26T12:29:55.845Z,1025.87
2018-09-26T12:30:55.868Z,1025.88
2018-09-26T12:31:55.890Z,1025.76
2018-09-26T12:32:55.916Z,1025.86
2018-09-26T12:33:55.936Z,1025.87
2018-09-26T12:34:56.098Z,1025.87
2018-09-26T12:35:55.984Z,1025.83
2018-09-26T12:36:56.010Z,1025.84
2018-09-26T12:37:56.030Z,1025.89
2018-09-26T12:38:56.054Z,1025.9
2018-09-26T12:39:56.078Z,1025.93
2018-09-26T12:40:56.101Z,1025.9
2018-09-26T12:41:56.124Z,1025.95
2018-09-26T12:42:56.148Z,1025.91
2018-09-26T12:43:56.172Z,1025.86
2018-09-26T12:45:56.216Z,1025.81
2018-09-26T12:46:56.239Z,1025.84
2018-09-26T12:47:56.357Z,1025.72
2018-09-26T12:48:56.287Z,1025.71
2018-09-26T12:49:56.310Z,1025.65